sensor_id;sensor_type;location;lat;lon;timestamp;temperature;humidity
66506;HTU21D;53332;51.082;5.832;2024-01-15T00:01:29;2.06;118.99
66506;HTU21D;53332;51.082;5.832;2024-01-15T00:03:54;2.05;118.99
66506;HTU21D;53332;51.082;5.832;2024-01-15T00:06:20;2.06;118.99
66506;HTU21D;53332;51.082;5.832;2024-01-15T00:08:46;2.03;118.99
66506;HTU21D;53332;51.082;5.832;2024-01-15T00:11:11;2.06;118.99
66506;HTU21D;53332;51.082;5.832;2024-01-15T00:13:37;2.03;118.99
66506;HTU21D;53332;51.082;5.832;2024-01-15T00:16:04;1.99;118.99
66506;HTU21D;53332;51.082;5.832;2024-01-15T00:18:29;2.01;118.99
66506;HTU21D;53332;51.082;5.832;2024-01-15T00:20:55;2.02;118.99
66506;HTU21D;53332;51.082;5.832;2024-01-15T00:23:22;2.01;118.99
66506;HTU21D;53332;51.082;5.832;2024-01-15T00:25:48;1.97;118.99
66506;HTU21D;53332;51.082;5.832;2024-01-15T00:28:16;2.00;118.99
66506;HTU21D;53332;51.082;5.832;2024-01-15T00:30:42;1.97;118.99
66506;HTU21D;53332;51.082;5.832;2024-01-15T00:33:07;1.98;118.99
66506;HTU21D;53332;51.082;5.832;2024-01-15T00:35:33;1.94;118.99
66506;HTU21D;53332;51.082;5.832;2024-01-15T00:37:58;1.95;118.99
66506;HTU21D;53332;51.082;5.832;2024-01-15T00:40:24;1.92;118.99
66506;HTU21D;53332;51.082;5.832;2024-01-15T00:42:51;1.92;118.99
66506;HTU21D;53332;51.082;5.832;2024-01-15T00:45:16;1.94;118.99
66506;HTU21D;53332;51.082;5.832;2024-01-15T00:47:42;1.95;118.99
66506;HTU21D;53332;51.082;5.832;2024-01-15T00:50:07;1.97;118.99
66506;HTU21D;53332;51.082;5.832;2024-01-15T00:52:33;1.95;118.99
66506;HTU21D;53332;51.082;5.832;2024-01-15T00:54:59;1.95;118.99
66506;HTU21D;53332;51.082;5.832;2024-01-15T00:57:25;1.91;118.99
66506;HTU21D;53332;51.082;5.832;2024-01-15T00:59:50;1.92;118.99
66506;HTU21D;53332;51.082;5.832;2024-01-15T01:02:16;1.91;118.99
66506;HTU21D;53332;51.082;5.832;2024-01-15T01:04:41;1.91;118.99
66506;HTU21D;53332;51.082;5.832;2024-01-15T01:07:07;1.88;118.99
66506;HTU21D;53332;51.082;5.832;2024-01-15T01:09:32;1.88;118.99
66506;HTU21D;53332;51.082;5.832;2024-01-15T01:11:58;1.90;118.99
66506;HTU21D;53332;51.082;5.832;2024-01-15T01:14:24;1.87;118.99
66506;HTU21D;53332;51.082;5.832;2024-01-15T01:16:49;1.88;118.99
66506;HTU21D;53332;51.082;5.832;2024-01-15T01:19:15;1.87;118.99
66506;HTU21D;53332;51.082;5.832;2024-01-15T01:21:40;1.85;118.99
66506;HTU21D;53332;51.082;5.832;2024-01-15T01:24:06;1.82;118.99
66506;HTU21D;53332;51.082;5.832;2024-01-15T01:26:31;1.80;118.99
66506;HTU21D;53332;51.082;5.832;2024-01-15T01:28:57;1.84;118.99
66506;HTU21D;53332;51.082;5.832;2024-01-15T01:31:23;1.94;118.99
66506;HTU21D;53332;51.082;5.832;2024-01-15T01:33:49;1.95;118.99
66506;HTU21D;53332;51.082;5.832;2024-01-15T01:36:15;1.92;118.99
66506;HTU21D;53332;51.082;5.832;2024-01-15T01:38:41;1.91;118.99
66506;HTU21D;53332;51.082;5.832;2024-01-15T01:41:07;1.91;118.99
66506;HTU21D;53332;51.082;5.832;2024-01-15T01:43:33;1.92;118.99
66506;HTU21D;53332;51.082;5.832;2024-01-15T01:46:00;1.93;118.99
66506;HTU21D;53332;51.082;5.832;2024-01-15T01:48:27;1.91;118.99
66506;HTU21D;53332;51.082;5.832;2024-01-15T01:50:57;1.96;118.99
66506;HTU21D;53332;51.082;5.832;2024-01-15T01:53:24;1.99;118.99
66506;HTU21D;53332;51.082;5.832;2024-01-15T01:55:51;1.98;118.99
66506;HTU21D;53332;51.082;5.832;2024-01-15T01:58:19;1.99;118.99
66506;HTU21D;53332;51.082;5.832;2024-01-15T02:00:46;1.99;118.99
66506;HTU21D;53332;51.082;5.832;2024-01-15T02:03:12;2.00;118.99
66506;HTU21D;53332;51.082;5.832;2024-01-15T02:05:39;2.00;118.99
66506;HTU21D;53332;51.082;5.832;2024-01-15T02:08:05;1.97;118.99
66506;HTU21D;53332;51.082;5.832;2024-01-15T02:10:31;1.94;118.99
66506;HTU21D;53332;51.082;5.832;2024-01-15T02:12:58;1.96;118.99
66506;HTU21D;53332;51.082;5.832;2024-01-15T02:15:23;1.96;118.99
66506;HTU21D;53332;51.082;5.832;2024-01-15T02:18:00;1.99;118.99
66506;HTU21D;53332;51.082;5.832;2024-01-15T02:20:26;1.98;118.99
66506;HTU21D;53332;51.082;5.832;2024-01-15T02:22:51;2.01;118.99
66506;HTU21D;53332;51.082;5.832;2024-01-15T02:25:18;2.02;118.99
66506;HTU21D;53332;51.082;5.832;2024-01-15T02:27:44;2.03;118.99
66506;HTU21D;53332;51.082;5.832;2024-01-15T02:30:12;2.05;118.99
66506;HTU21D;53332;51.082;5.832;2024-01-15T02:32:38;2.03;118.99
66506;HTU21D;53332;51.082;5.832;2024-01-15T02:35:04;2.08;118.99
66506;HTU21D;53332;51.082;5.832;2024-01-15T02:37:30;2.03;118.99
66506;HTU21D;53332;51.082;5.832;2024-01-15T02:39:55;2.01;118.99
66506;HTU21D;53332;51.082;5.832;2024-01-15T02:42:21;2.01;118.99
66506;HTU21D;53332;51.082;5.832;2024-01-15T02:44:47;2.07;118.99
66506;HTU21D;53332;51.082;5.832;2024-01-15T02:47:14;2.09;118.99
66506;HTU21D;53332;51.082;5.832;2024-01-15T02:49:40;2.01;118.99
66506;HTU21D;53332;51.082;5.832;2024-01-15T02:52:06;2.02;118.99
66506;HTU21D;53332;51.082;5.832;2024-01-15T02:54:31;2.10;118.99
66506;HTU21D;53332;51.082;5.832;2024-01-15T02:56:57;2.10;118.99
66506;HTU21D;53332;51.082;5.832;2024-01-15T02:59:22;2.11;118.99
66506;HTU21D;53332;51.082;5.832;2024-01-15T03:01:48;2.10;118.99
66506;HTU21D;53332;51.082;5.832;2024-01-15T03:04:13;2.14;118.99
66506;HTU21D;53332;51.082;5.832;2024-01-15T03:06:39;2.13;118.99
66506;HTU21D;53332;51.082;5.832;2024-01-15T03:09:04;2.06;118.99
66506;HTU21D;53332;51.082;5.832;2024-01-15T03:11:37;2.08;118.99
66506;HTU21D;53332;51.082;5.832;2024-01-15T03:14:04;2.11;118.99
66506;HTU21D;53332;51.082;5.832;2024-01-15T03:16:29;2.10;118.99
66506;HTU21D;53332;51.082;5.832;2024-01-15T03:18:55;2.12;118.99
66506;HTU21D;53332;51.082;5.832;2024-01-15T03:21:20;2.13;118.99
66506;HTU21D;53332;51.082;5.832;2024-01-15T03:23:46;2.11;118.99
66506;HTU21D;53332;51.082;5.832;2024-01-15T03:26:11;2.11;118.99
66506;HTU21D;53332;51.082;5.832;2024-01-15T03:28:37;2.11;118.99
66506;HTU21D;53332;51.082;5.832;2024-01-15T03:31:02;2.10;118.99
66506;HTU21D;53332;51.082;5.832;2024-01-15T03:33:28;2.09;118.99
66506;HTU21D;53332;51.082;5.832;2024-01-15T03:35:53;2.06;118.99
66506;HTU21D;53332;51.082;5.832;2024-01-15T03:38:19;2.07;118.99
66506;HTU21D;53332;51.082;5.832;2024-01-15T03:40:44;2.08;118.99
66506;HTU21D;53332;51.082;5.832;2024-01-15T03:43:10;2.06;118.99
66506;HTU21D;53332;51.082;5.832;2024-01-15T03:45:35;2.10;118.99
66506;HTU21D;53332;51.082;5.832;2024-01-15T03:48:01;2.08;118.99
66506;HTU21D;53332;51.082;5.832;2024-01-15T03:50:26;2.09;118.99
66506;HTU21D;53332;51.082;5.832;2024-01-15T03:52:52;2.10;118.99
66506;HTU21D;53332;51.082;5.832;2024-01-15T03:55:17;2.08;118.99
66506;HTU21D;53332;51.082;5.832;2024-01-15T03:57:43;2.07;118.99
66506;HTU21D;53332;51.082;5.832;2024-01-15T04:00:09;2.09;118.99
66506;HTU21D;53332;51.082;5.832;2024-01-15T04:02:35;2.10;118.99
66506;HTU21D;53332;51.082;5.832;2024-01-15T04:05:00;2.10;118.99
66506;HTU21D;53332;51.082;5.832;2024-01-15T04:07:26;2.11;118.99
66506;HTU21D;53332;51.082;5.832;2024-01-15T04:09:51;2.07;118.99
66506;HTU21D;53332;51.082;5.832;2024-01-15T04:12:17;2.08;118.99
66506;HTU21D;53332;51.082;5.832;2024-01-15T04:14:42;2.09;118.99
66506;HTU21D;53332;51.082;5.832;2024-01-15T04:17:08;2.09;118.99
66506;HTU21D;53332;51.082;5.832;2024-01-15T04:19:33;2.09;118.99
66506;HTU21D;53332;51.082;5.832;2024-01-15T04:21:59;2.13;118.99
66506;HTU21D;53332;51.082;5.832;2024-01-15T04:24:24;2.10;118.99
66506;HTU21D;53332;51.082;5.832;2024-01-15T04:26:50;2.11;118.99
66506;HTU21D;53332;51.082;5.832;2024-01-15T04:29:15;2.10;118.99
66506;HTU21D;53332;51.082;5.832;2024-01-15T04:31:41;2.09;118.99
66506;HTU21D;53332;51.082;5.832;2024-01-15T04:34:06;2.13;118.99
66506;HTU21D;53332;51.082;5.832;2024-01-15T04:36:32;2.20;118.99
66506;HTU21D;53332;51.082;5.832;2024-01-15T04:39:03;2.23;118.99
66506;HTU21D;53332;51.082;5.832;2024-01-15T04:41:30;2.23;118.99
66506;HTU21D;53332;51.082;5.832;2024-01-15T04:43:55;2.22;118.99
66506;HTU21D;53332;51.082;5.832;2024-01-15T04:46:21;2.23;118.99
66506;HTU21D;53332;51.082;5.832;2024-01-15T04:48:46;2.22;118.99
66506;HTU21D;53332;51.082;5.832;2024-01-15T04:51:12;2.21;118.99
66506;HTU21D;53332;51.082;5.832;2024-01-15T04:53:37;2.22;118.99
66506;HTU21D;53332;51.082;5.832;2024-01-15T04:56:03;2.27;118.99
66506;HTU21D;53332;51.082;5.832;2024-01-15T04:58:29;2.30;118.99
66506;HTU21D;53332;51.082;5.832;2024-01-15T05:00:54;2.27;118.99
66506;HTU21D;53332;51.082;5.832;2024-01-15T05:03:20;2.29;118.99
66506;HTU21D;53332;51.082;5.832;2024-01-15T05:05:45;2.30;118.99
66506;HTU21D;53332;51.082;5.832;2024-01-15T05:08:11;2.27;118.99
66506;HTU21D;53332;51.082;5.832;2024-01-15T05:10:37;2.24;118.99
66506;HTU21D;53332;51.082;5.832;2024-01-15T05:13:02;2.28;118.99
66506;HTU21D;53332;51.082;5.832;2024-01-15T05:15:28;2.27;118.99
66506;HTU21D;53332;51.082;5.832;2024-01-15T05:17:53;2.31;118.99
66506;HTU21D;53332;51.082;5.832;2024-01-15T05:20:19;2.29;118.99
66506;HTU21D;53332;51.082;5.832;2024-01-15T05:22:44;2.28;118.99
66506;HTU21D;53332;51.082;5.832;2024-01-15T05:25:10;2.26;118.99
66506;HTU21D;53332;51.082;5.832;2024-01-15T05:27:35;2.29;118.99
66506;HTU21D;53332;51.082;5.832;2024-01-15T05:30:01;2.36;118.99
66506;HTU21D;53332;51.082;5.832;2024-01-15T05:32:26;2.39;118.99
66506;HTU21D;53332;51.082;5.832;2024-01-15T05:34:52;2.42;118.99
66506;HTU21D;53332;51.082;5.832;2024-01-15T05:37:17;2.43;118.99
66506;HTU21D;53332;51.082;5.832;2024-01-15T05:39:43;2.47;118.99
66506;HTU21D;53332;51.082;5.832;2024-01-15T05:42:08;2.46;118.99
66506;HTU21D;53332;51.082;5.832;2024-01-15T05:44:34;2.43;118.99
66506;HTU21D;53332;51.082;5.832;2024-01-15T05:46:59;2.45;118.99
66506;HTU21D;53332;51.082;5.832;2024-01-15T05:49:25;2.47;118.99
66506;HTU21D;53332;51.082;5.832;2024-01-15T05:51:50;2.46;118.99
66506;HTU21D;53332;51.082;5.832;2024-01-15T05:54:18;2.52;118.99
66506;HTU21D;53332;51.082;5.832;2024-01-15T05:56:44;2.53;118.99
66506;HTU21D;53332;51.082;5.832;2024-01-15T05:59:10;2.55;118.99
66506;HTU21D;53332;51.082;5.832;2024-01-15T06:01:35;2.52;118.99
66506;HTU21D;53332;51.082;5.832;2024-01-15T06:04:01;2.53;118.99
66506;HTU21D;53332;51.082;5.832;2024-01-15T06:06:26;2.45;118.99
66506;HTU21D;53332;51.082;5.832;2024-01-15T06:08:52;2.47;118.99
66506;HTU21D;53332;51.082;5.832;2024-01-15T06:11:17;2.43;118.99
66506;HTU21D;53332;51.082;5.832;2024-01-15T06:13:43;2.41;118.99
66506;HTU21D;53332;51.082;5.832;2024-01-15T06:16:15;2.40;118.99
66506;HTU21D;53332;51.082;5.832;2024-01-15T06:18:45;2.37;118.99
66506;HTU21D;53332;51.082;5.832;2024-01-15T06:21:11;2.37;118.99
66506;HTU21D;53332;51.082;5.832;2024-01-15T06:23:38;2.37;118.99
66506;HTU21D;53332;51.082;5.832;2024-01-15T06:26:04;2.37;118.99
66506;HTU21D;53332;51.082;5.832;2024-01-15T06:28:30;2.34;118.99
66506;HTU21D;53332;51.082;5.832;2024-01-15T06:30:57;2.35;118.99
66506;HTU21D;53332;51.082;5.832;2024-01-15T06:33:23;2.38;118.99
66506;HTU21D;53332;51.082;5.832;2024-01-15T06:35:50;2.37;118.99
66506;HTU21D;53332;51.082;5.832;2024-01-15T06:38:16;2.39;118.99
66506;HTU21D;53332;51.082;5.832;2024-01-15T06:40:41;2.40;118.99
66506;HTU21D;53332;51.082;5.832;2024-01-15T06:43:17;2.44;118.99
66506;HTU21D;53332;51.082;5.832;2024-01-15T06:45:43;2.45;118.99
66506;HTU21D;53332;51.082;5.832;2024-01-15T06:48:09;2.45;118.99
66506;HTU21D;53332;51.082;5.832;2024-01-15T06:50:34;2.46;118.99
66506;HTU21D;53332;51.082;5.832;2024-01-15T06:53:00;2.45;118.99
66506;HTU21D;53332;51.082;5.832;2024-01-15T06:55:26;2.43;118.99
66506;HTU21D;53332;51.082;5.832;2024-01-15T06:57:52;2.40;118.99
66506;HTU21D;53332;51.082;5.832;2024-01-15T07:00:18;2.35;118.99
66506;HTU21D;53332;51.082;5.832;2024-01-15T07:02:45;2.37;118.99
66506;HTU21D;53332;51.082;5.832;2024-01-15T07:05:11;2.26;118.99
66506;HTU21D;53332;51.082;5.832;2024-01-15T07:07:37;2.25;118.99
66506;HTU21D;53332;51.082;5.832;2024-01-15T07:10:03;2.27;118.99
66506;HTU21D;53332;51.082;5.832;2024-01-15T07:12:29;2.28;118.99
66506;HTU21D;53332;51.082;5.832;2024-01-15T07:14:56;2.21;118.99
66506;HTU21D;53332;51.082;5.832;2024-01-15T07:17:21;2.20;118.99
66506;HTU21D;53332;51.082;5.832;2024-01-15T07:19:47;2.16;118.99
66506;HTU21D;53332;51.082;5.832;2024-01-15T07:22:12;2.16;118.99
66506;HTU21D;53332;51.082;5.832;2024-01-15T07:24:38;2.14;118.99
66506;HTU21D;53332;51.082;5.832;2024-01-15T07:27:04;2.15;118.99
66506;HTU21D;53332;51.082;5.832;2024-01-15T07:29:30;2.13;118.99
66506;HTU21D;53332;51.082;5.832;2024-01-15T07:31:58;2.12;118.99
66506;HTU21D;53332;51.082;5.832;2024-01-15T07:34:23;2.17;118.99
66506;HTU21D;53332;51.082;5.832;2024-01-15T07:36:49;2.20;118.99
66506;HTU21D;53332;51.082;5.832;2024-01-15T07:39:14;2.20;118.99
66506;HTU21D;53332;51.082;5.832;2024-01-15T07:41:40;2.23;118.99
66506;HTU21D;53332;51.082;5.832;2024-01-15T07:44:06;2.24;118.99
66506;HTU21D;53332;51.082;5.832;2024-01-15T07:46:31;2.25;118.99
66506;HTU21D;53332;51.082;5.832;2024-01-15T07:48:57;2.22;118.99
66506;HTU21D;53332;51.082;5.832;2024-01-15T07:51:24;2.22;118.99
66506;HTU21D;53332;51.082;5.832;2024-01-15T07:53:50;2.23;118.99
66506;HTU21D;53332;51.082;5.832;2024-01-15T07:56:16;2.22;118.99
66506;HTU21D;53332;51.082;5.832;2024-01-15T07:58:42;2.22;118.99
66506;HTU21D;53332;51.082;5.832;2024-01-15T08:01:07;2.15;118.99
66506;HTU21D;53332;51.082;5.832;2024-01-15T08:03:33;2.09;118.99
66506;HTU21D;53332;51.082;5.832;2024-01-15T08:05:59;2.12;118.99
66506;HTU21D;53332;51.082;5.832;2024-01-15T08:08:25;2.09;118.99
66506;HTU21D;53332;51.082;5.832;2024-01-15T08:10:54;2.05;118.99
66506;HTU21D;53332;51.082;5.832;2024-01-15T08:13:19;1.96;118.99
66506;HTU21D;53332;51.082;5.832;2024-01-15T08:15:46;1.91;118.99
66506;HTU21D;53332;51.082;5.832;2024-01-15T08:18:12;1.92;118.99
66506;HTU21D;53332;51.082;5.832;2024-01-15T08:20:38;1.85;118.99
66506;HTU21D;53332;51.082;5.832;2024-01-15T08:23:04;1.90;118.99
66506;HTU21D;53332;51.082;5.832;2024-01-15T08:25:30;1.88;118.99
66506;HTU21D;53332;51.082;5.832;2024-01-15T08:27:56;1.87;118.99
66506;HTU21D;53332;51.082;5.832;2024-01-15T08:30:22;1.88;118.99
66506;HTU21D;53332;51.082;5.832;2024-01-15T08:32:53;1.87;118.99
66506;HTU21D;53332;51.082;5.832;2024-01-15T08:35:19;1.87;118.99
66506;HTU21D;53332;51.082;5.832;2024-01-15T08:37:49;1.92;118.99
66506;HTU21D;53332;51.082;5.832;2024-01-15T08:40:16;1.96;118.99
66506;HTU21D;53332;51.082;5.832;2024-01-15T08:42:42;2.00;118.99
66506;HTU21D;53332;51.082;5.832;2024-01-15T08:45:09;2.00;118.99
66506;HTU21D;53332;51.082;5.832;2024-01-15T08:47:35;1.99;118.99
66506;HTU21D;53332;51.082;5.832;2024-01-15T08:50:01;2.01;118.99
66506;HTU21D;53332;51.082;5.832;2024-01-15T08:52:27;2.06;118.99
66506;HTU21D;53332;51.082;5.832;2024-01-15T08:54:52;2.05;118.99
66506;HTU21D;53332;51.082;5.832;2024-01-15T08:57:18;2.07;118.99
66506;HTU21D;53332;51.082;5.832;2024-01-15T08:59:43;2.10;118.99
66506;HTU21D;53332;51.082;5.832;2024-01-15T09:02:10;2.12;118.99
66506;HTU21D;53332;51.082;5.832;2024-01-15T09:04:36;2.11;118.99
66506;HTU21D;53332;51.082;5.832;2024-01-15T09:07:01;2.13;118.99
66506;HTU21D;53332;51.082;5.832;2024-01-15T09:09:27;2.13;118.99
66506;HTU21D;53332;51.082;5.832;2024-01-15T09:11:53;2.08;118.99
66506;HTU21D;53332;51.082;5.832;2024-01-15T09:14:18;2.06;118.99
66506;HTU21D;53332;51.082;5.832;2024-01-15T09:16:44;2.06;118.99
66506;HTU21D;53332;51.082;5.832;2024-01-15T09:19:10;2.03;118.99
66506;HTU21D;53332;51.082;5.832;2024-01-15T09:21:38;2.01;118.99
66506;HTU21D;53332;51.082;5.832;2024-01-15T09:24:04;2.02;118.99
66506;HTU21D;53332;51.082;5.832;2024-01-15T09:26:29;2.03;118.99
66506;HTU21D;53332;51.082;5.832;2024-01-15T09:28:55;2.02;118.99
66506;HTU21D;53332;51.082;5.832;2024-01-15T09:31:20;2.05;118.99
66506;HTU21D;53332;51.082;5.832;2024-01-15T09:33:47;2.07;118.99
66506;HTU21D;53332;51.082;5.832;2024-01-15T09:36:12;2.06;118.99
66506;HTU21D;53332;51.082;5.832;2024-01-15T09:38:40;2.00;118.99
66506;HTU21D;53332;51.082;5.832;2024-01-15T09:41:07;2.01;118.99
66506;HTU21D;53332;51.082;5.832;2024-01-15T09:43:33;1.99;118.99
66506;HTU21D;53332;51.082;5.832;2024-01-15T09:45:59;1.96;118.99
66506;HTU21D;53332;51.082;5.832;2024-01-15T09:48:25;1.93;118.99
66506;HTU21D;53332;51.082;5.832;2024-01-15T09:50:52;1.93;118.99
66506;HTU21D;53332;51.082;5.832;2024-01-15T09:53:18;1.93;118.99
66506;HTU21D;53332;51.082;5.832;2024-01-15T09:55:47;1.95;118.99
66506;HTU21D;53332;51.082;5.832;2024-01-15T09:58:15;1.96;118.99
66506;HTU21D;53332;51.082;5.832;2024-01-15T10:00:41;1.98;118.99
66506;HTU21D;53332;51.082;5.832;2024-01-15T10:03:09;1.93;118.99
66506;HTU21D;53332;51.082;5.832;2024-01-15T10:05:36;1.91;118.99
66506;HTU21D;53332;51.082;5.832;2024-01-15T10:08:02;1.92;118.99
66506;HTU21D;53332;51.082;5.832;2024-01-15T10:10:29;1.95;118.99
66506;HTU21D;53332;51.082;5.832;2024-01-15T10:12:55;1.99;118.99
66506;HTU21D;53332;51.082;5.832;2024-01-15T10:15:25;2.01;118.99
66506;HTU21D;53332;51.082;5.832;2024-01-15T10:17:51;2.09;118.99
66506;HTU21D;53332;51.082;5.832;2024-01-15T10:20:17;2.11;118.99
66506;HTU21D;53332;51.082;5.832;2024-01-15T10:22:45;2.14;118.99
66506;HTU21D;53332;51.082;5.832;2024-01-15T10:25:14;2.15;118.99
66506;HTU21D;53332;51.082;5.832;2024-01-15T10:27:43;2.15;118.99
66506;HTU21D;53332;51.082;5.832;2024-01-15T10:30:10;2.14;118.99
66506;HTU21D;53332;51.082;5.832;2024-01-15T10:32:35;2.12;118.99
66506;HTU21D;53332;51.082;5.832;2024-01-15T10:35:01;2.13;118.99
66506;HTU21D;53332;51.082;5.832;2024-01-15T10:37:27;2.14;118.99
66506;HTU21D;53332;51.082;5.832;2024-01-15T10:39:53;2.19;118.99
66506;HTU21D;53332;51.082;5.832;2024-01-15T10:42:18;2.21;118.99
66506;HTU21D;53332;51.082;5.832;2024-01-15T10:44:45;2.22;118.99
66506;HTU21D;53332;51.082;5.832;2024-01-15T10:47:14;2.27;118.99
66506;HTU21D;53332;51.082;5.832;2024-01-15T10:49:40;2.30;118.99
66506;HTU21D;53332;51.082;5.832;2024-01-15T10:52:06;2.31;118.99
66506;HTU21D;53332;51.082;5.832;2024-01-15T10:54:32;2.32;118.99
66506;HTU21D;53332;51.082;5.832;2024-01-15T10:56:59;2.35;118.99
66506;HTU21D;53332;51.082;5.832;2024-01-15T10:59:25;2.42;118.99
66506;HTU21D;53332;51.082;5.832;2024-01-15T11:01:52;2.47;118.99
66506;HTU21D;53332;51.082;5.832;2024-01-15T11:04:22;2.54;118.99
66506;HTU21D;53332;51.082;5.832;2024-01-15T11:06:53;2.55;118.99
66506;HTU21D;53332;51.082;5.832;2024-01-15T11:09:23;2.61;118.99
66506;HTU21D;53332;51.082;5.832;2024-01-15T11:11:52;2.68;118.99
66506;HTU21D;53332;51.082;5.832;2024-01-15T11:17:00;2.71;118.99
66506;HTU21D;53332;51.082;5.832;2024-01-15T11:19:45;2.70;118.99
66506;HTU21D;53332;51.082;5.832;2024-01-15T11:25:05;2.88;118.99
66506;HTU21D;53332;51.082;5.832;2024-01-15T11:27:44;2.91;118.99
66506;HTU21D;53332;51.082;5.832;2024-01-15T11:30:12;2.86;118.99
66506;HTU21D;53332;51.082;5.832;2024-01-15T11:32:39;2.84;118.99
66506;HTU21D;53332;51.082;5.832;2024-01-15T11:35:10;2.78;118.99
66506;HTU21D;53332;51.082;5.832;2024-01-15T11:40:19;2.72;118.99
66506;HTU21D;53332;51.082;5.832;2024-01-15T11:42:45;2.72;118.99
66506;HTU21D;53332;51.082;5.832;2024-01-15T11:45:11;2.73;118.99
66506;HTU21D;53332;51.082;5.832;2024-01-15T11:50:30;2.64;118.99
66506;HTU21D;53332;51.082;5.832;2024-01-15T11:53:03;2.56;118.99
66506;HTU21D;53332;51.082;5.832;2024-01-15T11:55:39;2.50;118.99
66506;HTU21D;53332;51.082;5.832;2024-01-15T11:58:09;2.50;118.99
66506;HTU21D;53332;51.082;5.832;2024-01-15T12:00:39;2.50;118.99
66506;HTU21D;53332;51.082;5.832;2024-01-15T12:03:06;2.47;118.99
66506;HTU21D;53332;51.082;5.832;2024-01-15T12:05:31;2.45;118.99
66506;HTU21D;53332;51.082;5.832;2024-01-15T12:07:57;2.41;118.99
66506;HTU21D;53332;51.082;5.832;2024-01-15T12:10:23;2.41;118.99
66506;HTU21D;53332;51.082;5.832;2024-01-15T12:15:28;2.44;118.99
66506;HTU21D;53332;51.082;5.832;2024-01-15T12:17:56;2.41;118.99
66506;HTU21D;53332;51.082;5.832;2024-01-15T12:20:24;2.37;118.99
66506;HTU21D;53332;51.082;5.832;2024-01-15T12:22:50;2.35;118.99
66506;HTU21D;53332;51.082;5.832;2024-01-15T12:25:15;2.37;118.99
66506;HTU21D;53332;51.082;5.832;2024-01-15T12:27:41;2.39;118.99
66506;HTU21D;53332;51.082;5.832;2024-01-15T12:30:07;2.37;118.99
66506;HTU21D;53332;51.082;5.832;2024-01-15T12:32:35;2.32;118.99
66506;HTU21D;53332;51.082;5.832;2024-01-15T12:35:01;2.34;118.99
66506;HTU21D;53332;51.082;5.832;2024-01-15T12:37:26;2.34;118.99
66506;HTU21D;53332;51.082;5.832;2024-01-15T12:39:52;2.38;118.99
66506;HTU21D;53332;51.082;5.832;2024-01-15T12:42:21;2.41;118.99
66506;HTU21D;53332;51.082;5.832;2024-01-15T12:44:47;2.45;118.99
66506;HTU21D;53332;51.082;5.832;2024-01-15T12:47:13;2.52;118.99
66506;HTU21D;53332;51.082;5.832;2024-01-15T12:49:39;2.56;118.99
66506;HTU21D;53332;51.082;5.832;2024-01-15T12:52:08;2.51;118.99
66506;HTU21D;53332;51.082;5.832;2024-01-15T12:54:34;2.42;118.99
66506;HTU21D;53332;51.082;5.832;2024-01-15T12:57:00;2.42;118.99
66506;HTU21D;53332;51.082;5.832;2024-01-15T12:59:25;2.42;118.99
66506;HTU21D;53332;51.082;5.832;2024-01-15T13:01:51;2.44;118.99
66506;HTU21D;53332;51.082;5.832;2024-01-15T13:04:24;2.41;118.99
66506;HTU21D;53332;51.082;5.832;2024-01-15T13:06:50;2.35;118.99
66506;HTU21D;53332;51.082;5.832;2024-01-15T13:09:17;2.34;118.99
66506;HTU21D;53332;51.082;5.832;2024-01-15T13:11:44;2.34;118.99
66506;HTU21D;53332;51.082;5.832;2024-01-15T13:14:10;2.31;118.99
66506;HTU21D;53332;51.082;5.832;2024-01-15T13:16:35;2.37;118.99
66506;HTU21D;53332;51.082;5.832;2024-01-15T13:19:01;2.36;118.99
66506;HTU21D;53332;51.082;5.832;2024-01-15T13:21:29;2.39;118.99
66506;HTU21D;53332;51.082;5.832;2024-01-15T13:23:55;2.45;118.99
66506;HTU21D;53332;51.082;5.832;2024-01-15T13:26:21;2.47;118.99
66506;HTU21D;53332;51.082;5.832;2024-01-15T13:28:47;2.50;118.99
66506;HTU21D;53332;51.082;5.832;2024-01-15T13:31:12;2.49;118.99
66506;HTU21D;53332;51.082;5.832;2024-01-15T13:33:38;2.46;118.99
66506;HTU21D;53332;51.082;5.832;2024-01-15T13:36:04;2.46;118.99
66506;HTU21D;53332;51.082;5.832;2024-01-15T13:38:33;2.46;118.99
66506;HTU21D;53332;51.082;5.832;2024-01-15T13:41:02;2.50;118.99
66506;HTU21D;53332;51.082;5.832;2024-01-15T13:43:28;2.51;118.99
66506;HTU21D;53332;51.082;5.832;2024-01-15T13:45:53;2.53;118.99
66506;HTU21D;53332;51.082;5.832;2024-01-15T13:48:20;2.58;118.99
66506;HTU21D;53332;51.082;5.832;2024-01-15T13:50:46;2.60;118.99
66506;HTU21D;53332;51.082;5.832;2024-01-15T13:53:11;2.59;118.99
66506;HTU21D;53332;51.082;5.832;2024-01-15T13:55:37;2.60;118.99
66506;HTU21D;53332;51.082;5.832;2024-01-15T13:58:02;2.62;118.99
66506;HTU21D;53332;51.082;5.832;2024-01-15T14:00:31;2.65;118.99
66506;HTU21D;53332;51.082;5.832;2024-01-15T14:02:57;2.67;118.99
66506;HTU21D;53332;51.082;5.832;2024-01-15T14:05:23;2.64;118.99
66506;HTU21D;53332;51.082;5.832;2024-01-15T14:07:49;2.66;118.99
66506;HTU21D;53332;51.082;5.832;2024-01-15T14:10:14;2.61;118.99
66506;HTU21D;53332;51.082;5.832;2024-01-15T14:12:40;2.62;118.99
66506;HTU21D;53332;51.082;5.832;2024-01-15T14:15:06;2.59;118.99
66506;HTU21D;53332;51.082;5.832;2024-01-15T14:17:32;2.59;118.99
66506;HTU21D;53332;51.082;5.832;2024-01-15T14:19:58;2.61;118.99
66506;HTU21D;53332;51.082;5.832;2024-01-15T14:22:23;2.65;118.99
66506;HTU21D;53332;51.082;5.832;2024-01-15T14:24:49;2.66;118.99
66506;HTU21D;53332;51.082;5.832;2024-01-15T14:27:16;2.71;118.99
66506;HTU21D;53332;51.082;5.832;2024-01-15T14:29:42;2.78;118.99
66506;HTU21D;53332;51.082;5.832;2024-01-15T14:32:07;2.76;118.99
66506;HTU21D;53332;51.082;5.832;2024-01-15T14:34:33;2.79;118.99
66506;HTU21D;53332;51.082;5.832;2024-01-15T14:37:01;2.75;118.99
66506;HTU21D;53332;51.082;5.832;2024-01-15T14:39:26;2.72;118.99
66506;HTU21D;53332;51.082;5.832;2024-01-15T14:41:52;2.72;118.99
66506;HTU21D;53332;51.082;5.832;2024-01-15T14:44:17;2.73;118.99
66506;HTU21D;53332;51.082;5.832;2024-01-15T14:46:43;2.74;118.99
66506;HTU21D;53332;51.082;5.832;2024-01-15T14:49:08;2.79;118.99
66506;HTU21D;53332;51.082;5.832;2024-01-15T14:51:34;2.78;118.99
66506;HTU21D;53332;51.082;5.832;2024-01-15T14:54:00;2.78;118.99
66506;HTU21D;53332;51.082;5.832;2024-01-15T14:56:25;2.78;118.99
66506;HTU21D;53332;51.082;5.832;2024-01-15T14:58:51;2.79;118.99
66506;HTU21D;53332;51.082;5.832;2024-01-15T15:01:16;2.80;118.99
66506;HTU21D;53332;51.082;5.832;2024-01-15T15:03:42;2.82;118.99
66506;HTU21D;53332;51.082;5.832;2024-01-15T15:06:09;2.84;118.99
66506;HTU21D;53332;51.082;5.832;2024-01-15T15:08:36;2.81;118.99
66506;HTU21D;53332;51.082;5.832;2024-01-15T15:11:02;2.76;118.99
66506;HTU21D;53332;51.082;5.832;2024-01-15T15:13:27;2.75;118.99
66506;HTU21D;53332;51.082;5.832;2024-01-15T15:15:53;2.75;118.99
66506;HTU21D;53332;51.082;5.832;2024-01-15T15:18:20;2.78;118.99
66506;HTU21D;53332;51.082;5.832;2024-01-15T15:20:47;2.73;118.99
66506;HTU21D;53332;51.082;5.832;2024-01-15T15:23:13;2.74;118.99